sensor_id;sensor_type;location;lat;lon;timestamp;temperature;humidity
12015;DHT22;6066;48.138;16.402;2023-06-10T00:00:42;16.10;99.90
12015;DHT22;6066;48.138;16.402;2023-06-10T00:03:09;16.00;99.90
12015;DHT22;6066;48.138;16.402;2023-06-10T00:05:36;16.00;99.90
12015;DHT22;6066;48.138;16.402;2023-06-10T00:08:05;16.00;99.90
12015;DHT22;6066;48.138;16.402;2023-06-10T00:10:33;16.00;99.90
12015;DHT22;6066;48.138;16.402;2023-06-10T00:13:02;16.00;99.90
12015;DHT22;6066;48.138;16.402;2023-06-10T00:15:29;16.00;99.90
12015;DHT22;6066;48.138;16.402;2023-06-10T00:17:56;16.00;99.90
12015;DHT22;6066;48.138;16.402;2023-06-10T00:20:22;16.00;99.90
12015;DHT22;6066;48.138;16.402;2023-06-10T00:22:51;16.00;99.90
12015;DHT22;6066;48.138;16.402;2023-06-10T00:25:18;16.00;99.90
12015;DHT22;6066;48.138;16.402;2023-06-10T00:27:46;16.00;99.90
12015;DHT22;6066;48.138;16.402;2023-06-10T00:30:15;16.00;99.90
12015;DHT22;6066;48.138;16.402;2023-06-10T00:32:41;16.00;99.90
12015;DHT22;6066;48.138;16.402;2023-06-10T00:35:08;16.00;99.90
12015;DHT22;6066;48.138;16.402;2023-06-10T00:37:35;16.00;99.90
12015;DHT22;6066;48.138;16.402;2023-06-10T00:40:02;16.00;99.90
12015;DHT22;6066;48.138;16.402;2023-06-10T00:42:29;16.00;99.90
12015;DHT22;6066;48.138;16.402;2023-06-10T00:44:56;16.00;99.90
12015;DHT22;6066;48.138;16.402;2023-06-10T00:47:24;16.00;99.90
12015;DHT22;6066;48.138;16.402;2023-06-10T00:49:51;16.00;99.90
12015;DHT22;6066;48.138;16.402;2023-06-10T00:52:18;16.00;99.90
12015;DHT22;6066;48.138;16.402;2023-06-10T00:54:46;16.00;99.90
12015;DHT22;6066;48.138;16.402;2023-06-10T00:57:12;15.90;99.90
12015;DHT22;6066;48.138;16.402;2023-06-10T00:59:39;15.90;99.90
12015;DHT22;6066;48.138;16.402;2023-06-10T01:02:06;15.90;99.90
12015;DHT22;6066;48.138;16.402;2023-06-10T01:04:36;16.00;99.90
12015;DHT22;6066;48.138;16.402;2023-06-10T01:07:05;15.90;99.90
12015;DHT22;6066;48.138;16.402;2023-06-10T01:09:39;16.00;99.90
12015;DHT22;6066;48.138;16.402;2023-06-10T01:12:09;16.00;99.90
12015;DHT22;6066;48.138;16.402;2023-06-10T01:14:37;16.00;99.90
12015;DHT22;6066;48.138;16.402;2023-06-10T01:17:10;16.00;99.90
12015;DHT22;6066;48.138;16.402;2023-06-10T01:19:38;16.00;99.90
12015;DHT22;6066;48.138;16.402;2023-06-10T01:22:07;16.10;99.90
12015;DHT22;6066;48.138;16.402;2023-06-10T01:24:34;16.10;99.90
12015;DHT22;6066;48.138;16.402;2023-06-10T01:27:01;16.10;99.90
12015;DHT22;6066;48.138;16.402;2023-06-10T01:29:33;16.20;99.90
12015;DHT22;6066;48.138;16.402;2023-06-10T01:32:04;16.20;99.90
12015;DHT22;6066;48.138;16.402;2023-06-10T01:34:32;16.30;99.90
12015;DHT22;6066;48.138;16.402;2023-06-10T01:36:59;16.30;99.90
12015;DHT22;6066;48.138;16.402;2023-06-10T01:39:28;16.30;99.90
12015;DHT22;6066;48.138;16.402;2023-06-10T01:41:54;16.40;99.90
12015;DHT22;6066;48.138;16.402;2023-06-10T01:44:22;16.40;99.90
12015;DHT22;6066;48.138;16.402;2023-06-10T01:46:49;16.40;99.90
12015;DHT22;6066;48.138;16.402;2023-06-10T01:49:16;16.40;99.90
12015;DHT22;6066;48.138;16.402;2023-06-10T01:51:42;16.40;99.90
12015;DHT22;6066;48.138;16.402;2023-06-10T01:54:09;16.50;99.90
12015;DHT22;6066;48.138;16.402;2023-06-10T01:56:37;16.50;99.90
12015;DHT22;6066;48.138;16.402;2023-06-10T01:59:04;16.50;99.90
12015;DHT22;6066;48.138;16.402;2023-06-10T02:01:30;16.50;99.90
12015;DHT22;6066;48.138;16.402;2023-06-10T02:03:57;16.50;99.90
12015;DHT22;6066;48.138;16.402;2023-06-10T02:06:24;16.50;99.90
12015;DHT22;6066;48.138;16.402;2023-06-10T02:08:51;16.50;99.90
12015;DHT22;6066;48.138;16.402;2023-06-10T02:11:17;16.40;99.90
12015;DHT22;6066;48.138;16.402;2023-06-10T02:13:45;16.40;99.90
12015;DHT22;6066;48.138;16.402;2023-06-10T02:16:12;16.50;99.90
12015;DHT22;6066;48.138;16.402;2023-06-10T02:18:42;16.50;99.90
12015;DHT22;6066;48.138;16.402;2023-06-10T02:21:09;16.40;99.90
12015;DHT22;6066;48.138;16.402;2023-06-10T02:23:36;16.40;99.90
12015;DHT22;6066;48.138;16.402;2023-06-10T02:26:02;16.40;99.90
12015;DHT22;6066;48.138;16.402;2023-06-10T02:28:29;16.40;99.90
12015;DHT22;6066;48.138;16.402;2023-06-10T02:30:57;16.40;99.90
12015;DHT22;6066;48.138;16.402;2023-06-10T02:33:24;16.40;99.90
12015;DHT22;6066;48.138;16.402;2023-06-10T02:35:51;16.40;99.90
12015;DHT22;6066;48.138;16.402;2023-06-10T02:38:17;16.40;99.90
12015;DHT22;6066;48.138;16.402;2023-06-10T02:40:44;16.40;99.90
12015;DHT22;6066;48.138;16.402;2023-06-10T02:43:11;16.40;99.90
12015;DHT22;6066;48.138;16.402;2023-06-10T02:45:38;16.40;99.90
12015;DHT22;6066;48.138;16.402;2023-06-10T02:48:06;16.30;99.90
12015;DHT22;6066;48.138;16.402;2023-06-10T02:50:33;16.30;99.90
12015;DHT22;6066;48.138;16.402;2023-06-10T02:53:00;16.20;99.90
12015;DHT22;6066;48.138;16.402;2023-06-10T02:55:27;16.20;99.90
12015;DHT22;6066;48.138;16.402;2023-06-10T02:57:54;16.10;99.90
12015;DHT22;6066;48.138;16.402;2023-06-10T03:00:21;16.10;99.90
12015;DHT22;6066;48.138;16.402;2023-06-10T03:02:48;16.00;99.90
12015;DHT22;6066;48.138;16.402;2023-06-10T03:05:16;16.00;99.90
12015;DHT22;6066;48.138;16.402;2023-06-10T03:07:42;16.00;99.90
12015;DHT22;6066;48.138;16.402;2023-06-10T03:10:11;16.00;99.90
12015;DHT22;6066;48.138;16.402;2023-06-10T03:12:38;15.90;99.90
12015;DHT22;6066;48.138;16.402;2023-06-10T03:15:05;15.90;99.90
12015;DHT22;6066;48.138;16.402;2023-06-10T03:17:32;15.80;99.90
12015;DHT22;6066;48.138;16.402;2023-06-10T03:19:59;15.90;99.90
12015;DHT22;6066;48.138;16.402;2023-06-10T03:22:27;15.90;99.90
12015;DHT22;6066;48.138;16.402;2023-06-10T03:24:54;15.90;99.90
12015;DHT22;6066;48.138;16.402;2023-06-10T03:27:22;15.90;99.90
12015;DHT22;6066;48.138;16.402;2023-06-10T03:29:49;15.90;99.90
12015;DHT22;6066;48.138;16.402;2023-06-10T03:32:15;15.90;99.90
12015;DHT22;6066;48.138;16.402;2023-06-10T03:34:43;15.90;99.90
12015;DHT22;6066;48.138;16.402;2023-06-10T03:37:10;16.00;99.90
12015;DHT22;6066;48.138;16.402;2023-06-10T03:39:38;16.00;99.90
12015;DHT22;6066;48.138;16.402;2023-06-10T03:42:05;16.00;99.90
12015;DHT22;6066;48.138;16.402;2023-06-10T03:44:32;16.10;99.90
12015;DHT22;6066;48.138;16.402;2023-06-10T03:46:59;16.10;99.90
12015;DHT22;6066;48.138;16.402;2023-06-10T03:49:25;16.20;99.90
12015;DHT22;6066;48.138;16.402;2023-06-10T03:51:54;16.20;99.90
12015;DHT22;6066;48.138;16.402;2023-06-10T03:54:21;16.30;99.90
12015;DHT22;6066;48.138;16.402;2023-06-10T03:56:49;16.40;99.90
12015;DHT22;6066;48.138;16.402;2023-06-10T03:59:16;16.40;99.90
12015;DHT22;6066;48.138;16.402;2023-06-10T04:01:42;16.50;99.90
12015;DHT22;6066;48.138;16.402;2023-06-10T04:04:12;16.50;99.90
12015;DHT22;6066;48.138;16.402;2023-06-10T04:06:38;16.60;99.90
12015;DHT22;6066;48.138;16.402;2023-06-10T04:09:06;16.70;99.90
12015;DHT22;6066;48.138;16.402;2023-06-10T04:11:35;16.80;99.90
12015;DHT22;6066;48.138;16.402;2023-06-10T04:14:03;16.80;99.90
12015;DHT22;6066;48.138;16.402;2023-06-10T04:16:30;16.90;99.90
12015;DHT22;6066;48.138;16.402;2023-06-10T04:18:58;16.90;99.90
12015;DHT22;6066;48.138;16.402;2023-06-10T04:21:25;17.00;99.90
12015;DHT22;6066;48.138;16.402;2023-06-10T04:23:51;17.00;99.90
12015;DHT22;6066;48.138;16.402;2023-06-10T04:26:18;17.10;99.90
12015;DHT22;6066;48.138;16.402;2023-06-10T04:28:45;17.10;99.90
12015;DHT22;6066;48.138;16.402;2023-06-10T04:31:13;17.10;99.90
12015;DHT22;6066;48.138;16.402;2023-06-10T04:33:40;17.20;99.90
12015;DHT22;6066;48.138;16.402;2023-06-10T04:36:06;17.20;99.90
12015;DHT22;6066;48.138;16.402;2023-06-10T04:38:33;17.30;99.90
12015;DHT22;6066;48.138;16.402;2023-06-10T04:41:00;17.30;99.90
12015;DHT22;6066;48.138;16.402;2023-06-10T04:43:26;17.40;99.90
12015;DHT22;6066;48.138;16.402;2023-06-10T04:45:53;17.50;99.90
12015;DHT22;6066;48.138;16.402;2023-06-10T04:48:21;17.50;99.90
12015;DHT22;6066;48.138;16.402;2023-06-10T04:50:49;17.60;99.90
12015;DHT22;6066;48.138;16.402;2023-06-10T04:53:15;17.60;99.90
12015;DHT22;6066;48.138;16.402;2023-06-10T04:55:42;17.60;99.90
12015;DHT22;6066;48.138;16.402;2023-06-10T04:58:10;17.60;99.90
12015;DHT22;6066;48.138;16.402;2023-06-10T05:00:36;17.50;99.90
12015;DHT22;6066;48.138;16.402;2023-06-10T05:03:03;17.50;99.90
12015;DHT22;6066;48.138;16.402;2023-06-10T05:05:31;17.50;99.90
12015;DHT22;6066;48.138;16.402;2023-06-10T05:07:58;17.50;99.90
12015;DHT22;6066;48.138;16.402;2023-06-10T05:10:24;17.50;99.90
12015;DHT22;6066;48.138;16.402;2023-06-10T05:12:51;17.50;99.90
12015;DHT22;6066;48.138;16.402;2023-06-10T05:15:18;17.50;99.90
12015;DHT22;6066;48.138;16.402;2023-06-10T05:17:45;17.50;99.90
12015;DHT22;6066;48.138;16.402;2023-06-10T05:20:11;17.60;99.90
12015;DHT22;6066;48.138;16.402;2023-06-10T05:22:40;17.50;99.90
12015;DHT22;6066;48.138;16.402;2023-06-10T05:25:07;17.50;99.90
12015;DHT22;6066;48.138;16.402;2023-06-10T05:27:34;17.50;99.90
12015;DHT22;6066;48.138;16.402;2023-06-10T05:30:01;17.50;99.90
12015;DHT22;6066;48.138;16.402;2023-06-10T05:32:28;17.60;99.90
12015;DHT22;6066;48.138;16.402;2023-06-10T05:34:55;17.50;99.90
12015;DHT22;6066;48.138;16.402;2023-06-10T05:37:22;17.50;99.90
12015;DHT22;6066;48.138;16.402;2023-06-10T05:39:50;17.50;99.90
12015;DHT22;6066;48.138;16.402;2023-06-10T05:42:16;17.50;99.90
12015;DHT22;6066;48.138;16.402;2023-06-10T05:44:43;17.50;99.90
12015;DHT22;6066;48.138;16.402;2023-06-10T05:47:10;17.50;99.90
12015;DHT22;6066;48.138;16.402;2023-06-10T05:49:36;17.50;99.90
12015;DHT22;6066;48.138;16.402;2023-06-10T05:52:03;17.50;99.90
12015;DHT22;6066;48.138;16.402;2023-06-10T05:54:30;17.50;99.90
12015;DHT22;6066;48.138;16.402;2023-06-10T05:56:58;17.50;99.90
12015;DHT22;6066;48.138;16.402;2023-06-10T05:59:25;17.50;99.90
12015;DHT22;6066;48.138;16.402;2023-06-10T06:01:52;17.50;99.90
12015;DHT22;6066;48.138;16.402;2023-06-10T06:04:18;17.60;99.90
12015;DHT22;6066;48.138;16.402;2023-06-10T06:06:45;17.60;99.90
12015;DHT22;6066;48.138;16.402;2023-06-10T06:09:12;17.70;99.90
12015;DHT22;6066;48.138;16.402;2023-06-10T06:11:38;17.80;99.90
12015;DHT22;6066;48.138;16.402;2023-06-10T06:14:06;17.90;99.90
12015;DHT22;6066;48.138;16.402;2023-06-10T06:16:33;17.90;99.90
12015;DHT22;6066;48.138;16.402;2023-06-10T06:19:00;17.90;99.90
12015;DHT22;6066;48.138;16.402;2023-06-10T06:21:26;18.00;99.90
12015;DHT22;6066;48.138;16.402;2023-06-10T06:23:53;18.00;99.90
12015;DHT22;6066;48.138;16.402;2023-06-10T06:26:20;18.00;99.90
12015;DHT22;6066;48.138;16.402;2023-06-10T06:28:47;18.00;99.90
12015;DHT22;6066;48.138;16.402;2023-06-10T06:31:16;18.00;99.90
12015;DHT22;6066;48.138;16.402;2023-06-10T06:33:43;18.00;99.90
12015;DHT22;6066;48.138;16.402;2023-06-10T06:36:09;18.00;99.90
12015;DHT22;6066;48.138;16.402;2023-06-10T06:38:36;18.00;99.90
12015;DHT22;6066;48.138;16.402;2023-06-10T06:41:03;18.00;99.90
12015;DHT22;6066;48.138;16.402;2023-06-10T06:43:31;18.00;99.90
12015;DHT22;6066;48.138;16.402;2023-06-10T06:45:58;18.00;99.90
12015;DHT22;6066;48.138;16.402;2023-06-10T06:48:26;18.00;99.90
12015;DHT22;6066;48.138;16.402;2023-06-10T06:50:53;18.00;99.90
12015;DHT22;6066;48.138;16.402;2023-06-10T06:53:21;18.00;99.90
12015;DHT22;6066;48.138;16.402;2023-06-10T06:55:48;18.00;99.90
12015;DHT22;6066;48.138;16.402;2023-06-10T06:58:16;18.00;99.90
12015;DHT22;6066;48.138;16.402;2023-06-10T07:00:43;17.90;99.90
12015;DHT22;6066;48.138;16.402;2023-06-10T07:03:09;17.90;99.90
12015;DHT22;6066;48.138;16.402;2023-06-10T07:05:38;17.90;99.90
12015;DHT22;6066;48.138;16.402;2023-06-10T07:08:04;17.80;99.90
12015;DHT22;6066;48.138;16.402;2023-06-10T07:10:31;17.80;99.90
12015;DHT22;6066;48.138;16.402;2023-06-10T07:12:58;17.80;99.90
12015;DHT22;6066;48.138;16.402;2023-06-10T07:15:25;17.90;99.90
12015;DHT22;6066;48.138;16.402;2023-06-10T07:17:52;17.90;99.90
12015;DHT22;6066;48.138;16.402;2023-06-10T07:20:18;17.90;99.90
12015;DHT22;6066;48.138;16.402;2023-06-10T07:22:46;17.90;99.90
12015;DHT22;6066;48.138;16.402;2023-06-10T07:25:13;18.00;99.90
12015;DHT22;6066;48.138;16.402;2023-06-10T07:27:41;18.00;99.90
12015;DHT22;6066;48.138;16.402;2023-06-10T07:30:08;18.00;99.90
12015;DHT22;6066;48.138;16.402;2023-06-10T07:32:34;18.10;99.90
12015;DHT22;6066;48.138;16.402;2023-06-10T07:35:01;18.20;99.90
12015;DHT22;6066;48.138;16.402;2023-06-10T07:37:28;18.20;99.90
12015;DHT22;6066;48.138;16.402;2023-06-10T07:39:56;18.20;99.90
12015;DHT22;6066;48.138;16.402;2023-06-10T07:42:23;18.20;99.90
12015;DHT22;6066;48.138;16.402;2023-06-10T07:44:49;18.20;99.90
12015;DHT22;6066;48.138;16.402;2023-06-10T07:47:16;18.20;99.90
12015;DHT22;6066;48.138;16.402;2023-06-10T07:49:43;18.20;99.90
12015;DHT22;6066;48.138;16.402;2023-06-10T07:52:10;18.20;99.90
12015;DHT22;6066;48.138;16.402;2023-06-10T07:54:36;18.20;99.90
12015;DHT22;6066;48.138;16.402;2023-06-10T07:57:05;18.30;99.90
12015;DHT22;6066;48.138;16.402;2023-06-10T07:59:32;18.30;99.90
12015;DHT22;6066;48.138;16.402;2023-06-10T08:01:59;18.30;99.90
12015;DHT22;6066;48.138;16.402;2023-06-10T08:04:25;18.30;99.90
12015;DHT22;6066;48.138;16.402;2023-06-10T08:06:52;18.30;99.90
12015;DHT22;6066;48.138;16.402;2023-06-10T08:09:19;18.30;99.90
12015;DHT22;6066;48.138;16.402;2023-06-10T08:11:46;18.30;99.90
12015;DHT22;6066;48.138;16.402;2023-06-10T08:14:15;18.20;99.90
12015;DHT22;6066;48.138;16.402;2023-06-10T08:16:42;18.20;99.90
12015;DHT22;6066;48.138;16.402;2023-06-10T08:19:09;18.30;99.90
12015;DHT22;6066;48.138;16.402;2023-06-10T08:21:35;18.20;99.90
12015;DHT22;6066;48.138;16.402;2023-06-10T08:24:05;18.20;99.90
12015;DHT22;6066;48.138;16.402;2023-06-10T08:26:31;18.20;99.90
12015;DHT22;6066;48.138;16.402;2023-06-10T08:28:58;18.20;99.90
12015;DHT22;6066;48.138;16.402;2023-06-10T08:31:26;18.20;99.90
12015;DHT22;6066;48.138;16.402;2023-06-10T08:33:53;18.20;99.90
12015;DHT22;6066;48.138;16.402;2023-06-10T08:36:20;18.20;99.90
12015;DHT22;6066;48.138;16.402;2023-06-10T08:38:46;18.20;99.90
12015;DHT22;6066;48.138;16.402;2023-06-10T08:41:14;18.20;99.90
12015;DHT22;6066;48.138;16.402;2023-06-10T08:43:42;18.20;99.90
12015;DHT22;6066;48.138;16.402;2023-06-10T08:46:10;18.20;99.90
12015;DHT22;6066;48.138;16.402;2023-06-10T08:48:39;18.20;99.90
12015;DHT22;6066;48.138;16.402;2023-06-10T08:51:08;18.20;99.90
12015;DHT22;6066;48.138;16.402;2023-06-10T08:53:36;18.20;99.90
12015;DHT22;6066;48.138;16.402;2023-06-10T08:56:04;18.20;99.90
12015;DHT22;6066;48.138;16.402;2023-06-10T08:58:32;18.30;99.90
12015;DHT22;6066;48.138;16.402;2023-06-10T09:01:00;18.40;99.90
12015;DHT22;6066;48.138;16.402;2023-06-10T09:03:27;18.50;99.90
12015;DHT22;6066;48.138;16.402;2023-06-10T09:05:56;18.50;99.90
12015;DHT22;6066;48.138;16.402;2023-06-10T09:08:23;18.60;99.90
12015;DHT22;6066;48.138;16.402;2023-06-10T09:10:50;18.70;99.90
12015;DHT22;6066;48.138;16.402;2023-06-10T09:13:17;18.80;99.90
12015;DHT22;6066;48.138;16.402;2023-06-10T09:15:44;18.90;99.90
12015;DHT22;6066;48.138;16.402;2023-06-10T09:18:11;18.90;99.90
12015;DHT22;6066;48.138;16.402;2023-06-10T09:20:38;19.00;99.90
12015;DHT22;6066;48.138;16.402;2023-06-10T09:23:06;19.00;99.90
12015;DHT22;6066;48.138;16.402;2023-06-10T09:25:36;19.00;99.90
12015;DHT22;6066;48.138;16.402;2023-06-10T09:28:03;19.10;99.90
12015;DHT22;6066;48.138;16.402;2023-06-10T09:30:31;19.10;99.90
12015;DHT22;6066;48.138;16.402;2023-06-10T09:32:58;19.20;99.90
12015;DHT22;6066;48.138;16.402;2023-06-10T09:35:25;19.20;99.90
12015;DHT22;6066;48.138;16.402;2023-06-10T09:37:52;19.20;99.90
12015;DHT22;6066;48.138;16.402;2023-06-10T09:40:21;19.20;99.90
12015;DHT22;6066;48.138;16.402;2023-06-10T09:42:52;19.30;99.90
12015;DHT22;6066;48.138;16.402;2023-06-10T09:45:20;19.40;99.90
12015;DHT22;6066;48.138;16.402;2023-06-10T09:47:47;19.50;99.90
12015;DHT22;6066;48.138;16.402;2023-06-10T09:50:13;19.60;99.90
12015;DHT22;6066;48.138;16.402;2023-06-10T09:52:40;19.90;99.90
12015;DHT22;6066;48.138;16.402;2023-06-10T09:55:07;20.20;99.90
12015;DHT22;6066;48.138;16.402;2023-06-10T09:57:36;20.50;99.90
12015;DHT22;6066;48.138;16.402;2023-06-10T10:00:04;20.60;99.90
12015;DHT22;6066;48.138;16.402;2023-06-10T10:02:31;20.70;99.90
12015;DHT22;6066;48.138;16.402;2023-06-10T10:05:02;20.80;99.90
12015;DHT22;6066;48.138;16.402;2023-06-10T10:07:28;21.00;99.90
12015;DHT22;6066;48.138;16.402;2023-06-10T10:09:56;21.10;99.90
12015;DHT22;6066;48.138;16.402;2023-06-10T10:12:22;21.10;99.90
12015;DHT22;6066;48.138;16.402;2023-06-10T10:14:51;21.20;99.90
12015;DHT22;6066;48.138;16.402;2023-06-10T10:17:18;21.20;99.90
12015;DHT22;6066;48.138;16.402;2023-06-10T10:19:46;21.30;99.90
12015;DHT22;6066;48.138;16.402;2023-06-10T10:22:15;21.30;99.90
12015;DHT22;6066;48.138;16.402;2023-06-10T10:24:46;21.30;99.90
12015;DHT22;6066;48.138;16.402;2023-06-10T10:27:17;21.30;99.90
12015;DHT22;6066;48.138;16.402;2023-06-10T10:29:45;21.30;99.90
12015;DHT22;6066;48.138;16.402;2023-06-10T10:32:14;21.30;99.90
12015;DHT22;6066;48.138;16.402;2023-06-10T10:34:43;21.30;99.90
12015;DHT22;6066;48.138;16.402;2023-06-10T10:37:12;21.30;99.90
12015;DHT22;6066;48.138;16.402;2023-06-10T10:39:39;21.20;99.90
12015;DHT22;6066;48.138;16.402;2023-06-10T10:42:06;21.20;99.90
12015;DHT22;6066;48.138;16.402;2023-06-10T10:44:35;21.20;99.90
12015;DHT22;6066;48.138;16.402;2023-06-10T10:47:02;21.30;99.90
12015;DHT22;6066;48.138;16.402;2023-06-10T10:49:30;21.30;99.90
12015;DHT22;6066;48.138;16.402;2023-06-10T10:51:58;21.30;99.90
12015;DHT22;6066;48.138;16.402;2023-06-10T10:54:29;21.40;99.90
12015;DHT22;6066;48.138;16.402;2023-06-10T10:57:12;21.40;99.90
12015;DHT22;6066;48.138;16.402;2023-06-10T10:59:43;21.30;99.90
12015;DHT22;6066;48.138;16.402;2023-06-10T11:02:10;21.30;99.90
12015;DHT22;6066;48.138;16.402;2023-06-10T11:04:38;21.30;99.90
12015;DHT22;6066;48.138;16.402;2023-06-10T11:07:10;21.40;99.90
12015;DHT22;6066;48.138;16.402;2023-06-10T11:09:56;21.50;99.90
12015;DHT22;6066;48.138;16.402;2023-06-10T11:12:23;21.60;99.90
12015;DHT22;6066;48.138;16.402;2023-06-10T11:14:53;21.50;99.90
12015;DHT22;6066;48.138;16.402;2023-06-10T11:17:20;21.40;99.90
12015;DHT22;6066;48.138;16.402;2023-06-10T11:19:48;21.30;99.90
12015;DHT22;6066;48.138;16.402;2023-06-10T11:22:17;21.20;99.90
12015;DHT22;6066;48.138;16.402;2023-06-10T11:24:47;21.30;99.90
12015;DHT22;6066;48.138;16.402;2023-06-10T11:27:14;21.40;99.90
12015;DHT22;6066;48.138;16.402;2023-06-10T11:29:54;21.70;99.90
12015;DHT22;6066;48.138;16.402;2023-06-10T11:32:21;22.00;99.90
12015;DHT22;6066;48.138;16.402;2023-06-10T11:34:53;22.20;99.90
12015;DHT22;6066;48.138;16.402;2023-06-10T11:37:21;22.30;99.90
12015;DHT22;6066;48.138;16.402;2023-06-10T11:39:50;22.30;99.90
12015;DHT22;6066;48.138;16.402;2023-06-10T11:42:17;22.40;99.90
12015;DHT22;6066;48.138;16.402;2023-06-10T11:44:47;22.60;99.90
12015;DHT22;6066;48.138;16.402;2023-06-10T11:47:14;22.70;99.90
12015;DHT22;6066;48.138;16.402;2023-06-10T11:49:41;22.90;99.90
12015;DHT22;6066;48.138;16.402;2023-06-10T11:52:09;22.90;99.90
12015;DHT22;6066;48.138;16.402;2023-06-10T11:54:37;22.80;99.90
12015;DHT22;6066;48.138;16.402;2023-06-10T11:57:04;22.70;99.90
12015;DHT22;6066;48.138;16.402;2023-06-10T11:59:33;22.80;99.90
12015;DHT22;6066;48.138;16.402;2023-06-10T12:02:00;23.00;99.90
12015;DHT22;6066;48.138;16.402;2023-06-10T12:04:26;23.10;99.90
12015;DHT22;6066;48.138;16.402;2023-06-10T12:06:53;23.10;99.90
12015;DHT22;6066;48.138;16.402;2023-06-10T12:09:22;23.00;99.90
12015;DHT22;6066;48.138;16.402;2023-06-10T12:11:49;22.90;99.90
12015;DHT22;6066;48.138;16.402;2023-06-10T12:14:16;22.80;99.90
12015;DHT22;6066;48.138;16.402;2023-06-10T12:16:48;22.70;99.90
12015;DHT22;6066;48.138;16.402;2023-06-10T12:19:14;22.70;99.90
12015;DHT22;6066;48.138;16.402;2023-06-10T12:21:41;22.60;99.90
12015;DHT22;6066;48.138;16.402;2023-06-10T12:24:08;22.50;99.90
12015;DHT22;6066;48.138;16.402;2023-06-10T12:26:38;22.50;99.90
12015;DHT22;6066;48.138;16.402;2023-06-10T12:29:12;22.50;99.90
12015;DHT22;6066;48.138;16.402;2023-06-10T12:31:58;22.60;99.90
12015;DHT22;6066;48.138;16.402;2023-06-10T12:34:32;22.50;99.90
12015;DHT22;6066;48.138;16.402;2023-06-10T12:36:59;22.50;99.90
12015;DHT22;6066;48.138;16.402;2023-06-10T12:39:25;22.60;99.90
12015;DHT22;6066;48.138;16.402;2023-06-10T12:41:54;22.60;99.90
12015;DHT22;6066;48.138;16.402;2023-06-10T12:44:28;22.50;99.90
12015;DHT22;6066;48.138;16.402;2023-06-10T12:46:55;22.40;99.90
12015;DHT22;6066;48.138;16.402;2023-06-10T12:49:21;22.30;99.90
12015;DHT22;6066;48.138;16.402;2023-06-10T12:51:48;22.10;99.90
12015;DHT22;6066;48.138;16.402;2023-06-10T12:54:15;21.90;99.90
12015;DHT22;6066;48.138;16.402;2023-06-10T12:56:42;21.70;99.90
12015;DHT22;6066;48.138;16.402;2023-06-10T12:59:10;21.50;99.90
12015;DHT22;6066;48.138;16.402;2023-06-10T13:01:37;21.20;99.90
12015;DHT22;6066;48.138;16.402;2023-06-10T13:04:04;21.00;99.90
12015;DHT22;6066;48.138;16.402;2023-06-10T13:06:31;20.70;99.90
12015;DHT22;6066;48.138;16.402;2023-06-10T13:09:02;20.50;99.90
12015;DHT22;6066;48.138;16.402;2023-06-10T13:11:29;20.30;99.90
12015;DHT22;6066;48.138;16.402;2023-06-10T13:13:55;20.20;99.90
12015;DHT22;6066;48.138;16.402;2023-06-10T13:16:23;19.90;99.90
12015;DHT22;6066;48.138;16.402;2023-06-10T13:18:52;19.60;99.90
12015;DHT22;6066;48.138;16.402;2023-06-10T13:21:19;19.50;99.90
12015;DHT22;6066;48.138;16.402;2023-06-10T13:23:46;19.40;99.90
12015;DHT22;6066;48.138;16.402;2023-06-10T13:26:13;19.30;99.90
12015;DHT22;6066;48.138;16.402;2023-06-10T13:28:41;19.30;99.90
12015;DHT22;6066;48.138;16.402;2023-06-10T13:31:08;19.30;99.90
12015;DHT22;6066;48.138;16.402;2023-06-10T13:33:36;19.30;99.90
12015;DHT22;6066;48.138;16.402;2023-06-10T13:36:04;19.30;99.90
12015;DHT22;6066;48.138;16.402;2023-06-10T13:38:30;19.20;99.90
12015;DHT22;6066;48.138;16.402;2023-06-10T13:40:57;19.40;99.90
12015;DHT22;6066;48.138;16.402;2023-06-10T13:43:24;19.50;99.90
12015;DHT22;6066;48.138;16.402;2023-06-10T13:45:50;19.50;99.90
12015;DHT22;6066;48.138;16.402;2023-06-10T13:48:17;19.50;99.90
12015;DHT22;6066;48.138;16.402;2023-06-10T13:50:46;19.50;99.90
12015;DHT22;6066;48.138;16.402;2023-06-10T13:53:13;19.60;99.90
12015;DHT22;6066;48.138;16.402;2023-06-10T13:55:40;19.70;99.90
12015;DHT22;6066;48.138;16.402;2023-06-10T13:58:06;19.60;99.90
12015;DHT22;6066;48.138;16.402;2023-06-10T14:00:33;19.60;99.90
12015;DHT22;6066;48.138;16.402;2023-06-10T14:03:00;19.60;99.90
12015;DHT22;6066;48.138;16.402;2023-06-10T14:05:28;19.60;99.90
12015;DHT22;6066;48.138;16.402;2023-06-10T14:07:56;19.60;99.90
12015;DHT22;6066;48.138;16.402;2023-06-10T14:10:23;19.70;99.90
12015;DHT22;6066;48.138;16.402;2023-06-10T14:12:50;19.80;99.90
12015;DHT22;6066;48.138;16.402;2023-06-10T14:15:17;19.80;99.90
12015;DHT22;6066;48.138;16.402;2023-06-10T14:17:43;19.80;99.90
12015;DHT22;6066;48.138;16.402;2023-06-10T14:20:11;19.80;99.90
12015;DHT22;6066;48.138;16.402;2023-06-10T14:22:37;19.80;99.90
12015;DHT22;6066;48.138;16.402;2023-06-10T14:25:06;19.80;99.90
12015;DHT22;6066;48.138;16.402;2023-06-10T14:27:33;19.80;99.90
12015;DHT22;6066;48.138;16.402;2023-06-10T14:30:00;19.80;99.90
12015;DHT22;6066;48.138;16.402;2023-06-10T14:32:26;19.80;99.90
12015;DHT22;6066;48.138;16.402;2023-06-10T14:34:53;19.80;99.90
12015;DHT22;6066;48.138;16.402;2023-06-10T14:37:19;19.80;99.90
12015;DHT22;6066;48.138;16.402;2023-06-10T14:39:46;19.80;99.90
12015;DHT22;6066;48.138;16.402;2023-06-10T14:42:14;19.80;99.90
12015;DHT22;6066;48.138;16.402;2023-06-10T14:44:41;19.80;99.90
12015;DHT22;6066;48.138;16.402;2023-06-10T14:47:08;19.80;99.90
12015;DHT22;6066;48.138;16.402;2023-06-10T14:49:34;19.80;99.90
12015;DHT22;6066;48.138;16.402;2023-06-10T14:52:01;19.80;99.90
12015;DHT22;6066;48.138;16.402;2023-06-10T14:54:28;19.80;99.90
12015;DHT22;6066;48.138;16.402;2023-06-10T14:56:54;19.70;99.90
12015;DHT22;6066;48.138;16.402;2023-06-10T14:59:22;19.70;99.90
12015;DHT22;6066;48.138;16.402;2023-06-10T15:01:49;19.70;99.90
12015;DHT22;6066;48.138;16.402;2023-06-10T15:04:16;19.70;99.90
12015;DHT22;6066;48.138;16.402;2023-06-10T15:06:42;19.70;99.90
12015;DHT22;6066;48.138;16.402;2023-06-10T15:09:10;19.70;99.90
12015;DHT22;6066;48.138;16.402;2023-06-10T15:11:36;19.70;99.90
12015;DHT22;6066;48.138;16.402;2023-06-10T15:14:03;19.70;99.90
12015;DHT22;6066;48.138;16.402;2023-06-10T15:16:32;19.70;99.90
12015;DHT22;6066;48.138;16.402;2023-06-10T15:18:58;19.70;99.90
12015;DHT22;6066;48.138;16.402;2023-06-10T15:21:25;19.70;99.90
12015;DHT22;6066;48.138;16.402;2023-06-10T15:23:52;19.80;99.90
12015;DHT22;6066;48.138;16.402;2023-06-10T15:26:19;19.80;99.90
12015;DHT22;6066;48.138;16.402;2023-06-10T15:28:46;19.90;99.90
12015;DHT22;6066;48.138;16.402;2023-06-10T15:31:12;19.90;99.90